Time,TemperatureF,DewpointF,PressureIn,WindDirection,WindDirectionDegrees,WindSpeedMPH,WindSpeedGustMPH,Humidity,HourlyPrecipIn,Conditions,Clouds,dailyrainin,SoftwareType,DateUTC
2013-07-12 00:14:00,71.6,71.0,29.88,ESE,108,0.0,0.0,98,0.00,,,0.00,weatherlink.com 1.10,2013-07-12 04:14:00,
2013-07-12 00:29:00,71.5,71.0,29.89,ESE,108,0.0,1.0,98,0.00,,,0.00,weatherlink.com 1.10,2013-07-12 04:29:00,
2013-07-12 00:44:00,71.2,71.0,29.89,ESE,108,0.0,0.0,98,0.00,,,0.00,weatherlink.com 1.10,2013-07-12 04:44:00,
2013-07-12 00:59:00,71.0,70.0,29.89,ESE,108,0.0,0.0,98,0.00,,,0.00,weatherlink.com 1.10,2013-07-12 04:59:00,
2013-07-12 01:14:00,70.8,70.0,29.89,ESE,108,0.0,0.0,98,0.00,,,0.00,weatherlink.com 1.10,2013-07-12 05:14:00,
2013-07-12 01:29:00,70.5,70.0,29.89,ESE,108,0.0,0.0,98,0.00,,,0.00,weatherlink.com 1.10,2013-07-12 05:29:00,
2013-07-12 01:44:00,70.6,70.0,29.89,ESE,108,0.0,0.0,98,0.00,,,0.00,weatherlink.com 1.10,2013-07-12 05:44:00,
2013-07-12 02:00:00,70.0,69.0,29.89,ESE,108,0.0,0.0,98,0.00,,,0.00,weatherlink.com 1.10,2013-07-12 06:00:00,
2013-07-12 02:14:00,69.9,69.0,29.89,ESE,108,0.0,0.0,98,0.00,,,0.00,weatherlink.com 1.10,2013-07-12 06:14:00,
2013-07-12 02:29:00,70.0,70.0,29.89,ESE,108,0.0,0.0,99,0.00,,,0.00,weatherlink.com 1.10,2013-07-12 06:29:00,
2013-07-12 02:44:00,70.1,70.0,29.89,ESE,108,0.0,0.0,99,0.00,,,0.00,weatherlink.com 1.10,2013-07-12 06:44:00,
2013-07-12 02:59:00,70.1,70.0,29.89,ESE,108,0.0,0.0,99,0.00,,,0.00,weatherlink.com 1.10,2013-07-12 06:59:00,
2013-07-12 03:14:00,69.7,69.0,29.88,ESE,108,0.0,0.0,98,0.00,,,0.00,weatherlink.com 1.10,2013-07-12 07:14:00,
2013-07-12 03:29:00,69.5,69.0,29.88,ESE,108,0.0,0.0,98,0.00,,,0.00,weatherlink.com 1.10,2013-07-12 07:29:00,
2013-07-12 03:44:00,69.3,69.0,29.87,ESE,109,0.0,0.0,98,0.00,,,0.00,weatherlink.com 1.10,2013-07-12 07:44:00,
2013-07-12 03:59:00,68.7,68.0,29.88,ESE,109,0.0,0.0,98,0.00,,,0.00,weatherlink.com 1.10,2013-07-12 07:59:00,
2013-07-12 04:14:00,68.3,68.0,29.88,ESE,109,0.0,0.0,98,0.00,,,0.00,weatherlink.com 1.10,2013-07-12 08:14:00,
2013-07-12 04:29:00,67.9,67.0,29.88,ESE,109,0.0,0.0,98,0.00,,,0.00,weatherlink.com 1.10,2013-07-12 08:29:00,
2013-07-12 04:44:00,67.7,67.0,29.88,ESE,108,0.0,0.0,98,0.00,,,0.00,weatherlink.com 1.10,2013-07-12 08:44:00,
2013-07-12 04:59:00,67.2,67.0,29.88,ESE,108,0.0,0.0,98,0.00,,,0.00,weatherlink.com 1.10,2013-07-12 08:59:00,
2013-07-12 05:14:00,67.0,67.0,29.88,ESE,108,0.0,0.0,99,0.00,,,0.00,weatherlink.com 1.10,2013-07-12 09:14:00,
2013-07-12 05:29:00,66.8,67.0,29.89,ESE,108,0.0,0.0,99,0.00,,,0.00,weatherlink.com 1.10,2013-07-12 09:29:00,
2013-07-12 05:44:00,66.3,66.0,29.89,ESE,108,0.0,0.0,98,0.00,,,0.00,weatherlink.com 1.10,2013-07-12 09:44:00,
2013-07-12 05:59:00,66.4,66.0,29.89,ESE,108,0.0,0.0,99,0.00,,,0.00,weatherlink.com 1.10,2013-07-12 09:59:00,
2013-07-12 06:14:00,66.4,66.0,29.89,ESE,108,0.0,0.0,99,0.00,,,0.00,weatherlink.com 1.10,2013-07-12 10:14:00,
2013-07-12 06:29:00,66.2,66.0,29.90,ESE,108,0.0,0.0,99,0.00,,,0.00,weatherlink.com 1.10,2013-07-12 10:29:00,
2013-07-12 06:46:00,66.0,66.0,29.90,ESE,108,0.0,0.0,99,0.00,,,0.00,weatherlink.com 1.10,2013-07-12 10:46:00,
2013-07-12 06:59:00,65.9,66.0,29.90,ESE,108,0.0,0.0,99,0.00,,,0.00,weatherlink.com 1.10,2013-07-12 10:59:00,
2013-07-12 07:14:00,65.9,66.0,29.90,ESE,108,0.0,0.0,99,0.00,,,0.00,weatherlink.com 1.10,2013-07-12 11:14:00,
2013-07-12 07:29:00,66.2,66.0,29.90,ESE,108,0.0,0.0,99,0.00,,,0.00,weatherlink.com 1.10,2013-07-12 11:29:00,
2013-07-12 07:44:00,66.5,66.0,29.91,ESE,103,0.0,0.0,99,0.00,,,0.00,weatherlink.com 1.10,2013-07-12 11:44:00,
2013-07-12 07:59:00,66.9,67.0,29.91,ESE,103,0.0,0.0,99,0.00,,,0.00,weatherlink.com 1.10,2013-07-12 11:59:00,
2013-07-12 08:14:00,67.5,67.0,29.91,North,353,0.0,1.0,99,0.00,,,0.00,weatherlink.com 1.10,2013-07-12 12:14:00,
2013-07-12 08:29:00,69.2,68.0,29.92,NNE,18,0.0,2.0,95,0.00,,,0.00,weatherlink.com 1.10,2013-07-12 12:29:00,
2013-07-12 08:44:00,70.7,68.0,29.92,NE,41,0.0,2.0,92,0.00,,,0.00,weatherlink.com 1.10,2013-07-12 12:44:00,
2013-07-12 09:00:00,73.2,69.0,29.93,ENE,60,0.0,3.0,87,0.00,,,0.00,weatherlink.com 1.10,2013-07-12 13:00:00,
2013-07-12 09:15:00,74.8,70.0,29.93,East,88,0.0,1.0,84,0.00,,,0.00,weatherlink.com 1.10,2013-07-12 13:15:00,
2013-07-12 09:30:00,76.3,71.0,29.94,North,349,0.0,2.0,83,0.00,,,0.00,weatherlink.com 1.10,2013-07-12 13:30:00,
2013-07-12 09:45:00,77.6,70.0,29.94,NNE,32,1.0,5.0,77,0.00,,,0.00,weatherlink.com 1.10,2013-07-12 13:45:00,
2013-07-12 10:00:00,77.5,69.0,29.94,WNW,283,0.0,7.0,76,0.00,,,0.00,weatherlink.com 1.10,2013-07-12 14:00:00,
2013-07-12 10:15:00,78.4,70.0,29.94,North,359,1.0,5.0,75,0.00,,,0.00,weatherlink.com 1.10,2013-07-12 14:15:00,
2013-07-12 10:32:00,78.7,70.0,29.94,WSW,252,0.0,5.0,75,0.00,,,0.00,weatherlink.com 1.10,2013-07-12 14:32:00,
2013-07-12 10:45:00,79.5,71.0,29.95,ENE,78,4.0,7.0,75,0.00,,,0.00,weatherlink.com 1.10,2013-07-12 14:45:00,
2013-07-12 11:00:00,78.9,70.0,29.94,NE,46,1.0,9.0,74,0.00,,,0.00,weatherlink.com 1.10,2013-07-12 15:00:00,
2013-07-12 11:15:00,79.2,71.0,29.94,WNW,294,2.0,6.0,75,0.00,,,0.00,weatherlink.com 1.10,2013-07-12 15:15:00,
2013-07-12 11:30:00,79.2,71.0,29.94,NE,45,1.0,4.0,75,0.00,,,0.00,weatherlink.com 1.10,2013-07-12 15:30:00,
2013-07-12 11:45:00,79.5,71.0,29.94,ENE,77,2.0,5.0,76,0.00,,,0.00,weatherlink.com 1.10,2013-07-12 15:45:00,
2013-07-12 12:00:00,80.5,71.0,29.94,North,3,2.0,4.0,73,0.00,,,0.00,weatherlink.com 1.10,2013-07-12 16:00:00,
2013-07-12 12:15:00,79.9,71.0,29.93,WNW,288,0.0,2.0,73,0.00,,,0.00,weatherlink.com 1.10,2013-07-12 16:15:00,
2013-07-12 12:30:00,80.9,72.0,29.93,NE,40,0.0,5.0,73,0.00,,,0.00,weatherlink.com 1.10,2013-07-12 16:30:00,
2013-07-12 12:45:00,81.3,71.0,29.93,WNW,285,0.0,6.0,71,0.00,,,0.00,weatherlink.com 1.10,2013-07-12 16:45:00,
2013-07-12 13:00:00,82.1,71.0,29.93,WNW,284,1.0,5.0,70,0.00,,,0.00,weatherlink.com 1.10,2013-07-12 17:00:00,
2013-07-12 13:15:00,82.5,71.0,29.93,WSW,257,0.0,4.0,69,0.00,,,0.00,weatherlink.com 1.10,2013-07-12 17:15:00,
2013-07-12 13:30:00,82.3,70.0,29.93,NNE,22,2.0,7.0,67,0.00,,,0.00,weatherlink.com 1.10,2013-07-12 17:30:00,
2013-07-12 13:45:00,83.6,71.0,29.92,ESE,118,3.0,5.0,65,0.00,,,0.00,weatherlink.com 1.10,2013-07-12 17:45:00,
2013-07-12 14:00:00,83.1,70.0,29.92,NW,319,2.0,7.0,65,0.00,,,0.00,weatherlink.com 1.10,2013-07-12 18:00:00,
2013-07-12 14:17:00,82.9,70.0,29.93,NW,305,1.0,4.0,66,0.00,,,0.00,weatherlink.com 1.10,2013-07-12 18:17:00,
2013-07-12 14:30:00,83.0,70.0,29.92,North,356,0.0,5.0,66,0.00,,,0.00,weatherlink.com 1.10,2013-07-12 18:30:00,
2013-07-12 14:45:00,83.2,71.0,29.92,North,11,0.0,5.0,66,0.00,,,0.00,weatherlink.com 1.10,2013-07-12 18:45:00,
2013-07-12 15:15:00,84.4,71.0,29.92,NE,44,2.0,3.0,65,0.00,,,0.00,weatherlink.com 1.10,2013-07-12 19:15:00,
2013-07-12 15:30:00,83.8,71.0,29.91,North,354,1.0,5.0,66,0.00,,,0.00,weatherlink.com 1.10,2013-07-12 19:30:00,
2013-07-12 15:45:00,84.9,70.0,29.91,NE,38,3.0,3.0,62,0.00,,,0.00,weatherlink.com 1.10,2013-07-12 19:45:00,
2013-07-12 16:00:00,84.3,70.0,29.90,ESE,113,1.0,3.0,62,0.00,,,0.00,weatherlink.com 1.10,2013-07-12 20:00:00,
2013-07-12 16:15:00,84.9,69.0,29.90,NE,56,0.0,5.0,59,0.00,,,0.00,weatherlink.com 1.10,2013-07-12 20:15:00,
2013-07-12 16:30:00,85.2,68.0,29.90,ESE,107,0.0,8.0,57,0.00,,,0.00,weatherlink.com 1.10,2013-07-12 20:30:00,
2013-07-12 16:45:00,85.1,67.0,29.89,ENE,63,2.0,2.0,55,0.00,,,0.00,weatherlink.com 1.10,2013-07-12 20:45:00,
2013-07-12 17:15:00,85.2,66.0,29.89,SE,128,3.0,4.0,53,0.00,,,0.00,weatherlink.com 1.10,2013-07-12 21:15:00,
2013-07-12 17:30:00,84.7,67.0,29.89,ENE,75,0.0,3.0,55,0.00,,,0.00,weatherlink.com 1.10,2013-07-12 21:30:00,
2013-07-12 17:45:00,84.8,66.0,29.89,East,99,0.0,5.0,54,0.00,,,0.00,weatherlink.com 1.10,2013-07-12 21:45:00,
2013-07-12 18:31:00,82.4,65.0,29.90,ENE,67,0.0,3.0,56,0.00,,,0.00,weatherlink.com 1.10,2013-07-12 22:31:00,
2013-07-12 18:46:00,81.8,66.0,29.90,NE,37,0.0,2.0,59,0.00,,,0.00,weatherlink.com 1.10,2013-07-12 22:46:00,
2013-07-12 19:01:00,80.9,65.0,29.90,East,79,0.0,4.0,59,0.00,,,0.00,weatherlink.com 1.10,2013-07-12 23:01:00,
2013-07-12 19:16:00,80.1,66.0,29.91,NNW,342,0.0,2.0,62,0.00,,,0.00,weatherlink.com 1.10,2013-07-12 23:16:00,
2013-07-12 19:31:00,79.4,65.0,29.90,East,99,0.0,1.0,61,0.00,,,0.00,weatherlink.com 1.10,2013-07-12 23:31:00,
2013-07-12 20:01:00,77.5,67.0,29.91,North,2,0.0,1.0,71,0.00,,,0.00,weatherlink.com 1.10,2013-07-13 00:01:00,
2013-07-12 20:16:00,76.1,68.0,29.91,North,4,0.0,1.0,75,0.00,,,0.00,weatherlink.com 1.10,2013-07-13 00:16:00,
2013-07-12 20:31:00,75.0,67.0,29.92,NE,34,0.0,0.0,76,0.00,,,0.00,weatherlink.com 1.10,2013-07-13 00:31:00,
2013-07-12 20:46:00,73.9,67.0,29.93,NE,37,0.0,1.0,78,0.00,,,0.00,weatherlink.com 1.10,2013-07-13 00:46:00,
2013-07-12 21:01:00,72.8,66.0,29.93,NE,36,0.0,1.0,80,0.00,,,0.00,weatherlink.com 1.10,2013-07-13 01:01:00,
2013-07-12 21:16:00,71.6,66.0,29.93,NE,38,0.0,1.0,82,0.00,,,0.00,weatherlink.com 1.10,2013-07-13 01:16:00,
2013-07-12 21:31:00,70.8,66.0,29.93,NE,39,0.0,0.0,84,0.00,,,0.00,weatherlink.com 1.10,2013-07-13 01:31:00,
2013-07-12 22:01:00,69.7,65.0,29.94,NE,51,0.0,1.0,86,0.00,,,0.00,weatherlink.com 1.10,2013-07-13 02:01:00,
2013-07-12 22:16:00,69.2,65.0,29.94,NE,51,0.0,1.0,86,0.00,,,0.00,weatherlink.com 1.10,2013-07-13 02:16:00,
2013-07-12 22:46:00,68.9,64.0,29.95,ENE,60,0.0,1.0,85,0.00,,,0.00,weatherlink.com 1.10,2013-07-13 02:46:00,
2013-07-12 23:01:00,68.4,64.0,29.95,ENE,60,0.0,0.0,86,0.00,,,0.00,weatherlink.com 1.10,2013-07-13 03:01:00,
2013-07-12 23:31:00,67.6,64.0,29.95,ENE,60,0.0,0.0,88,0.00,,,0.00,weatherlink.com 1.10,2013-07-13 03:31:00,